createdAt,value
2023-03-04T00:00:46.376Z,7.21
2023-03-04T00:03:15.542Z,6.94
2023-03-04T00:05:43.943Z,6.86
2023-03-04T00:08:13.553Z,6.68
2023-03-04T00:10:41.839Z,6.74
2023-03-04T00:13:10.125Z,6.76
2023-03-04T00:15:38.427Z,6.57
2023-03-04T00:18:06.863Z,6.45
2023-03-04T00:20:35.092Z,6.53
2023-03-04T00:23:03.331Z,6.32
2023-03-04T00:25:33.588Z,7.10
2023-03-04T00:28:02.052Z,6.81
2023-03-04T00:30:30.405Z,6.21
2023-03-04T00:32:58.665Z,6.38
2023-03-04T00:35:27.000Z,6.18
2023-03-04T00:37:55.371Z,6.46
2023-03-04T00:40:23.638Z,6.08
2023-03-04T00:42:53.226Z,6.10
2023-03-04T00:45:21.467Z,6.36
2023-03-04T00:47:49.721Z,6.07
2023-03-04T00:50:18.268Z,6.22
2023-03-04T00:52:46.633Z,6.13
2023-03-04T00:55:14.893Z,6.06
2023-03-04T00:57:43.117Z,6.01
2023-03-04T01:00:14.417Z,6.02
2023-03-04T01:02:42.737Z,6.06
2023-03-04T01:05:11.380Z,6.44
2023-03-04T01:07:39.667Z,6.48
2023-03-04T01:10:09.818Z,6.00
2023-03-04T01:12:38.058Z,5.91
2023-03-04T01:15:07.148Z,5.77
2023-03-04T01:17:36.869Z,6.16
2023-03-04T01:20:06.608Z,6.01
2023-03-04T01:22:34.902Z,5.82
2023-03-04T01:25:03.212Z,5.68
2023-03-04T01:27:31.460Z,5.81
2023-03-04T01:29:59.753Z,5.83
2023-03-04T01:32:28.070Z,5.92
2023-03-04T01:34:57.771Z,5.90
2023-03-04T01:37:26.080Z,6.00
2023-03-04T01:39:54.308Z,5.64
2023-03-04T01:42:24.659Z,5.88
2023-03-04T01:44:53.420Z,5.88
2023-03-04T01:47:23.907Z,6.02
2023-03-04T01:49:56.238Z,6.04
2023-03-04T01:52:26.995Z,5.71
2023-03-04T01:54:55.353Z,5.67
2023-03-04T01:57:25.263Z,5.92
2023-03-04T02:00:22.282Z,6.17
2023-03-04T02:02:53.815Z,6.17
2023-03-04T02:05:22.527Z,5.76
2023-03-04T02:07:52.822Z,5.52
2023-03-04T02:10:21.435Z,5.63
2023-03-04T02:12:50.037Z,5.63
2023-03-04T02:15:18.388Z,5.70
2023-03-04T02:17:46.681Z,5.96
2023-03-04T02:20:27.141Z,5.88
2023-03-04T02:23:02.206Z,6.04
2023-03-04T02:25:34.862Z,6.20
2023-03-04T02:28:04.672Z,5.63
2023-03-04T02:30:32.991Z,5.45
2023-03-04T02:33:01.226Z,5.20
2023-03-04T02:35:29.622Z,5.32
2023-03-04T02:37:57.895Z,5.46
2023-03-04T02:40:29.994Z,5.28
2023-03-04T02:43:00.107Z,4.90
2023-03-04T02:45:42.880Z,5.43
2023-03-04T02:48:11.670Z,5.13
2023-03-04T02:50:43.118Z,5.63
2023-03-04T02:53:11.415Z,4.98
2023-03-04T02:55:39.764Z,5.36
2023-03-04T02:58:08.021Z,5.36
2023-03-04T03:00:37.053Z,5.00
2023-03-04T03:03:07.255Z,4.94
2023-03-04T03:05:36.252Z,5.17
2023-03-04T03:08:04.737Z,5.10
2023-03-04T03:10:33.457Z,4.97
2023-03-04T03:13:01.701Z,4.88
2023-03-04T03:15:30.170Z,5.37
2023-03-04T03:17:58.680Z,5.17
2023-03-04T03:20:28.360Z,5.13
2023-03-04T03:22:56.585Z,5.36
2023-03-04T03:25:24.974Z,5.36
2023-03-04T03:27:53.270Z,5.31
2023-03-04T03:30:22.145Z,5.25
2023-03-04T03:32:50.453Z,5.49
2023-03-04T03:35:18.828Z,5.18
2023-03-04T03:37:49.264Z,4.94
2023-03-04T03:40:17.716Z,5.19
2023-03-04T03:42:46.031Z,5.72
2023-03-04T03:45:14.354Z,5.53
2023-03-04T03:47:42.698Z,5.44
2023-03-04T03:50:12.010Z,5.27
2023-03-04T03:52:40.372Z,4.76
2023-03-04T03:55:10.904Z,4.93
2023-03-04T03:57:39.015Z,5.13
2023-03-04T04:00:09.028Z,5.16
2023-03-04T04:02:37.367Z,5.37
2023-03-04T04:05:06.923Z,4.84
2023-03-04T04:07:35.277Z,4.74
2023-03-04T04:10:03.560Z,4.91
2023-03-04T04:12:33.556Z,4.90
2023-03-04T04:15:01.835Z,4.92
2023-03-04T04:17:30.107Z,4.59
2023-03-04T04:19:58.395Z,4.78
2023-03-04T04:22:26.653Z,4.47
2023-03-04T04:24:54.969Z,4.83
2023-03-04T04:27:23.527Z,4.59
2023-03-04T04:29:53.126Z,5.01
2023-03-04T04:32:21.442Z,4.82
2023-03-04T04:34:49.723Z,5.03
2023-03-04T04:37:17.974Z,4.97
2023-03-04T04:39:46.213Z,5.18
2023-03-04T04:42:14.475Z,4.49
2023-03-04T04:44:42.750Z,4.53
2023-03-04T04:47:12.457Z,4.80
2023-03-04T04:49:41.043Z,4.67
2023-03-04T04:52:09.293Z,4.73
2023-03-04T04:54:37.580Z,4.65
2023-03-04T04:57:05.851Z,4.46
2023-03-04T04:59:34.125Z,4.33
2023-03-04T05:02:02.475Z,4.52
2023-03-04T05:04:32.074Z,4.61
2023-03-04T05:07:00.360Z,4.15
2023-03-04T05:09:28.613Z,4.54
2023-03-04T05:11:56.921Z,4.50
2023-03-04T05:14:25.316Z,4.29
2023-03-04T05:16:53.936Z,4.41
2023-03-04T05:19:22.489Z,4.52
2023-03-04T05:21:52.155Z,4.37
2023-03-04T05:24:20.550Z,4.23
2023-03-04T05:26:48.928Z,4.50
2023-03-04T05:29:17.190Z,4.36
2023-03-04T05:31:45.537Z,4.06
2023-03-04T05:34:13.776Z,4.29
2023-03-04T05:36:42.031Z,4.21
2023-03-04T05:39:11.656Z,4.11
2023-03-04T05:41:39.958Z,4.81
2023-03-04T05:44:08.213Z,3.96
2023-03-04T05:46:36.557Z,4.15
2023-03-04T05:49:04.931Z,4.76
2023-03-04T05:51:33.270Z,4.39
2023-03-04T05:54:01.799Z,4.18
2023-03-04T05:56:33.478Z,4.17
2023-03-04T05:59:01.756Z,4.28
2023-03-04T06:01:31.368Z,4.65
2023-03-04T06:03:59.658Z,4.41
2023-03-04T06:06:28.029Z,4.36
2023-03-04T06:08:56.293Z,4.56
2023-03-04T06:11:24.539Z,4.79
2023-03-04T06:13:54.342Z,4.56
2023-03-04T06:16:23.012Z,4.87
2023-03-04T06:18:51.274Z,4.87
2023-03-04T06:21:19.501Z,4.90
2023-03-04T06:23:47.837Z,4.79
2023-03-04T06:26:16.368Z,4.70
2023-03-04T06:28:44.633Z,4.94
2023-03-04T06:31:14.299Z,4.96
2023-03-04T06:33:42.607Z,5.21
2023-03-04T06:36:10.985Z,5.44
2023-03-04T06:38:39.212Z,5.03
2023-03-04T06:41:09.035Z,5.09
2023-03-04T06:43:37.548Z,5.56
2023-03-04T06:46:06.239Z,5.15
2023-03-04T06:48:36.198Z,4.98
2023-03-04T06:51:08.528Z,5.01
2023-03-04T06:53:37.405Z,5.65
2023-03-04T06:56:06.256Z,5.49
2023-03-04T06:58:34.657Z,5.83
2023-03-04T07:01:14.459Z,5.53
2023-03-04T07:03:44.393Z,5.39
2023-03-04T07:06:13.135Z,5.62
2023-03-04T07:08:41.920Z,6.00
2023-03-04T07:11:10.502Z,5.64
2023-03-04T07:13:39.208Z,5.81
2023-03-04T07:16:08.215Z,5.99
2023-03-04T07:18:36.778Z,5.63
2023-03-04T07:21:07.717Z,5.47
2023-03-04T07:23:36.712Z,5.73
2023-03-04T07:26:05.196Z,5.71
2023-03-04T07:28:34.110Z,5.54
2023-03-04T07:31:10.431Z,6.10
2023-03-04T07:33:38.634Z,5.91
2023-03-04T07:36:08.628Z,6.29
2023-03-04T07:38:36.880Z,5.84
2023-03-04T07:41:05.361Z,5.92
2023-03-04T07:43:33.620Z,6.00
2023-03-04T07:46:02.937Z,5.98
2023-03-04T07:48:31.565Z,5.75
2023-03-04T07:51:11.648Z,5.87
2023-03-04T07:53:41.644Z,6.08
2023-03-04T07:56:12.709Z,6.07
2023-03-04T07:58:41.234Z,5.94
2023-03-04T08:01:11.083Z,5.53
2023-03-04T08:03:39.628Z,6.18
2023-03-04T08:06:08.351Z,6.16
2023-03-04T08:08:38.078Z,5.87
2023-03-04T08:11:07.120Z,6.39
2023-03-04T08:13:35.940Z,6.23
2023-03-04T08:16:04.419Z,6.58
2023-03-04T08:18:32.706Z,6.81
2023-03-04T08:21:00.997Z,6.50
2023-03-04T08:23:29.271Z,6.53
2023-03-04T08:25:58.942Z,7.03
2023-03-04T08:28:27.233Z,7.34
2023-03-04T08:30:56.691Z,7.09
2023-03-04T08:33:24.991Z,7.13
2023-03-04T08:35:54.103Z,7.30
2023-03-04T08:38:22.404Z,7.28
2023-03-04T08:40:54.247Z,6.86
2023-03-04T08:43:25.045Z,7.44
2023-03-04T08:45:53.520Z,7.07
2023-03-04T08:48:22.667Z,7.40
2023-03-04T08:50:51.566Z,7.60
2023-03-04T08:53:20.578Z,7.71
2023-03-04T08:55:49.351Z,7.47
2023-03-04T08:58:17.602Z,7.60
2023-03-04T09:00:49.570Z,7.91
2023-03-04T09:03:19.510Z,7.81
2023-03-04T09:05:49.081Z,7.90
2023-03-04T09:08:17.637Z,7.73
2023-03-04T09:10:46.614Z,7.63
2023-03-04T09:13:16.212Z,8.31
2023-03-04T09:15:47.618Z,7.54
2023-03-04T09:18:17.741Z,8.48
2023-03-04T09:20:46.130Z,8.16
2023-03-04T09:23:15.146Z,8.24
2023-03-04T09:25:43.685Z,8.21
2023-03-04T09:28:12.466Z,8.60
2023-03-04T09:30:40.945Z,8.44
2023-03-04T09:33:10.804Z,8.76
2023-03-04T09:35:39.284Z,8.63
2023-03-04T09:38:07.766Z,8.56
2023-03-04T09:40:40.853Z,8.73
2023-03-04T09:43:15.478Z,8.70
2023-03-04T09:45:47.600Z,8.85
2023-03-04T09:48:21.082Z,9.18
2023-03-04T09:51:03.481Z,8.96
2023-03-04T09:53:36.926Z,9.13
2023-03-04T09:56:06.836Z,9.57
2023-03-04T09:58:44.597Z,9.10
2023-03-04T10:01:18.929Z,9.18
2023-03-04T10:03:53.105Z,8.76
2023-03-04T10:06:23.416Z,9.38
2023-03-04T10:08:55.673Z,9.42
2023-03-04T10:11:27.335Z,9.25
2023-03-04T10:14:01.700Z,9.49
2023-03-04T10:16:33.470Z,9.53
2023-03-04T10:19:20.123Z,9.24
2023-03-04T10:21:50.481Z,9.84
2023-03-04T10:24:19.962Z,9.88
2023-03-04T10:26:50.797Z,10.06
2023-03-04T10:29:21.927Z,9.80
2023-03-04T10:31:50.608Z,9.85
2023-03-04T10:34:20.266Z,9.63
2023-03-04T10:36:56.656Z,10.09
2023-03-04T10:39:28.272Z,10.45
2023-03-04T10:42:00.012Z,10.52
2023-03-04T10:44:29.504Z,10.38
2023-03-04T10:46:59.108Z,10.38
2023-03-04T10:49:30.109Z,10.67
2023-03-04T10:52:03.797Z,10.74
2023-03-04T10:54:33.915Z,10.68
2023-03-04T10:57:04.003Z,9.89
2023-03-04T10:59:35.518Z,10.72
2023-03-04T11:02:15.320Z,10.85
2023-03-04T11:04:51.207Z,10.59
2023-03-04T11:07:19.503Z,11.06
2023-03-04T11:09:47.757Z,10.23
2023-03-04T11:12:17.890Z,10.81
2023-03-04T11:14:49.213Z,10.75
2023-03-04T11:17:26.044Z,10.56
2023-03-04T11:20:12.952Z,11.02
2023-03-04T11:22:41.518Z,11.20
2023-03-04T11:25:22.607Z,10.74
2023-03-04T11:27:54.305Z,11.08
2023-03-04T11:30:31.010Z,11.60
2023-03-04T11:33:07.206Z,10.65
2023-03-04T11:35:43.545Z,10.81
2023-03-04T11:38:18.225Z,11.60
2023-03-04T11:40:47.483Z,11.07
2023-03-04T11:43:18.858Z,11.65
2023-03-04T11:46:02.215Z,11.21
2023-03-04T11:48:39.885Z,10.90
2023-03-04T11:51:14.807Z,11.33
2023-03-04T11:53:46.170Z,10.60
2023-03-04T11:56:28.558Z,10.64
2023-03-04T11:59:15.774Z,11.06
2023-03-04T12:01:48.789Z,11.44
2023-03-04T12:04:26.434Z,11.54
2023-03-04T12:07:06.103Z,10.91
2023-03-04T12:09:41.755Z,10.82
2023-03-04T12:12:24.608Z,10.76
2023-03-04T12:15:01.635Z,10.34
2023-03-04T12:17:41.872Z,10.62
2023-03-04T12:20:21.770Z,10.74
2023-03-04T12:22:54.004Z,10.33
2023-03-04T12:25:38.378Z,10.70
2023-03-04T12:28:19.553Z,10.12
2023-03-04T12:30:57.779Z,10.35
2023-03-04T12:33:34.215Z,10.37
2023-03-04T12:36:09.796Z,10.59
2023-03-04T12:38:50.904Z,10.69
2023-03-04T12:41:33.844Z,10.46
2023-03-04T12:44:09.609Z,10.64
2023-03-04T12:46:45.925Z,10.49
2023-03-04T12:49:35.673Z,10.00
2023-03-04T12:52:10.345Z,10.33
2023-03-04T12:54:41.527Z,10.13
2023-03-04T12:57:13.620Z,10.14
2023-03-04T12:59:46.302Z,10.27
2023-03-04T13:02:35.159Z,9.98
2023-03-04T13:05:20.624Z,9.92
2023-03-04T13:07:57.736Z,9.79
2023-03-04T13:10:27.520Z,9.55
2023-03-04T13:12:57.155Z,10.33
2023-03-04T13:15:35.160Z,9.70
2023-03-04T13:18:05.948Z,9.64
2023-03-04T13:20:39.421Z,9.34
2023-03-04T13:23:27.018Z,9.38
2023-03-04T13:26:18.531Z,9.65
2023-03-04T13:28:46.961Z,8.96
2023-03-04T13:31:20.882Z,8.66
2023-03-04T13:34:00.306Z,8.72
2023-03-04T13:36:59.179Z,9.04
2023-03-04T13:39:37.300Z,8.93
2023-03-04T13:42:40.074Z,9.67
2023-03-04T13:45:33.555Z,9.54
2023-03-04T13:48:02.289Z,8.89
2023-03-04T13:50:41.536Z,9.14
2023-03-04T13:53:28.122Z,9.38
2023-03-04T13:56:06.487Z,9.37
2023-03-04T13:58:36.572Z,9.24
2023-03-04T14:01:06.965Z,9.17
2023-03-04T14:03:36.208Z,8.76
2023-03-04T14:06:18.566Z,9.02
2023-03-04T14:08:46.855Z,8.71
2023-03-04T14:11:17.299Z,8.62
2023-03-04T14:13:46.940Z,8.92
2023-03-04T14:16:21.103Z,8.87
2023-03-04T14:18:58.726Z,8.95
2023-03-04T14:21:27.100Z,9.09
2023-03-04T14:24:03.724Z,9.12
2023-03-04T14:26:33.069Z,9.02
2023-03-04T14:29:03.053Z,9.11
2023-03-04T14:31:32.950Z,8.39
2023-03-04T14:34:02.926Z,8.93
2023-03-04T14:36:33.389Z,8.72
2023-03-04T14:39:03.779Z,8.86
2023-03-04T14:41:34.897Z,8.28
2023-03-04T14:44:10.777Z,8.77
2023-03-04T14:46:41.534Z,8.63
2023-03-04T14:49:13.206Z,8.69
2023-03-04T14:51:45.931Z,9.01
2023-03-04T14:54:35.997Z,8.52
2023-03-04T14:57:24.104Z,8.49
2023-03-04T14:59:53.956Z,8.39
2023-03-04T15:02:31.115Z,7.88
2023-03-04T15:05:01.503Z,8.67
2023-03-04T15:07:36.414Z,8.33
2023-03-04T15:10:07.289Z,8.06
2023-03-04T15:12:37.504Z,8.16
2023-03-04T15:15:35.163Z,8.55
2023-03-04T15:18:04.644Z,8.12
2023-03-04T15:20:33.879Z,8.50
2023-03-04T15:23:08.403Z,8.11
2023-03-04T15:25:36.746Z,8.16
2023-03-04T15:28:07.061Z,8.26
2023-03-04T15:30:36.727Z,7.96
2023-03-04T15:33:07.036Z,8.23
2023-03-04T15:35:35.286Z,7.87
2023-03-04T15:38:03.931Z,7.67
2023-03-04T15:40:34.380Z,8.08
2023-03-04T15:43:04.512Z,8.01
2023-03-04T15:45:36.977Z,7.99
2023-03-04T15:48:08.968Z,8.06
2023-03-04T15:50:38.919Z,8.14
2023-03-04T15:53:09.430Z,8.04
2023-03-04T15:55:37.853Z,7.80
2023-03-04T15:58:06.708Z,7.56
2023-03-04T16:00:34.977Z,7.83
2023-03-04T16:03:03.266Z,7.55
2023-03-04T16:05:33.040Z,7.31
2023-03-04T16:08:01.635Z,7.42
2023-03-04T16:10:31.176Z,6.92
2023-03-04T16:12:59.478Z,7.26
2023-03-04T16:15:29.306Z,6.85
2023-03-04T16:17:58.231Z,6.84
2023-03-04T16:20:29.972Z,6.97
2023-03-04T16:23:01.417Z,6.48
2023-03-04T16:25:31.010Z,6.57
2023-03-04T16:28:02.728Z,6.42
2023-03-04T16:30:31.382Z,6.61
2023-03-04T16:32:59.667Z,6.76
2023-03-04T16:35:29.270Z,6.62
2023-03-04T16:37:59.069Z,6.34
2023-03-04T16:40:29.613Z,6.54
2023-03-04T16:42:57.802Z,6.91
2023-03-04T16:45:30.166Z,6.68
2023-03-04T16:47:58.704Z,6.70
2023-03-04T16:50:28.352Z,6.78
2023-03-04T16:52:56.960Z,6.87
2023-03-04T16:55:29.142Z,6.75
2023-03-04T16:57:58.354Z,6.57
2023-03-04T17:00:28.707Z,6.67
2023-03-04T17:02:58.559Z,6.85
2023-03-04T17:05:28.734Z,6.74
2023-03-04T17:07:57.139Z,6.30
2023-03-04T17:10:26.933Z,6.87
2023-03-04T17:12:55.284Z,6.57
2023-03-04T17:15:23.563Z,6.50
2023-03-04T17:17:52.606Z,7.20
2023-03-04T17:20:21.030Z,6.70
2023-03-04T17:22:49.263Z,6.57
2023-03-04T17:25:17.494Z,6.73
2023-03-04T17:27:47.292Z,6.79
2023-03-04T17:30:15.956Z,6.62
2023-03-04T17:32:44.271Z,6.91
2023-03-04T17:35:12.955Z,6.73
2023-03-04T17:37:41.533Z,6.71
2023-03-04T17:40:14.151Z,6.63
2023-03-04T17:42:42.989Z,6.42
2023-03-04T17:45:12.819Z,6.39
2023-03-04T17:47:41.044Z,6.57
2023-03-04T17:50:10.145Z,6.63
2023-03-04T17:52:38.419Z,6.59
2023-03-04T17:55:07.860Z,6.86
2023-03-04T17:57:37.283Z,6.36
2023-03-04T18:00:07.043Z,6.23
2023-03-04T18:02:36.809Z,6.83
2023-03-04T18:05:07.472Z,6.71
2023-03-04T18:07:35.529Z,6.34
2023-03-04T18:10:03.790Z,6.69
2023-03-04T18:12:32.462Z,6.68
2023-03-04T18:15:00.689Z,6.98
2023-03-04T18:17:28.945Z,6.87
2023-03-04T18:19:58.515Z,5.88
2023-03-04T18:22:26.763Z,6.81
2023-03-04T18:24:56.242Z,6.30
2023-03-04T18:27:24.487Z,6.22
2023-03-04T18:29:52.868Z,6.46
2023-03-04T18:32:21.170Z,5.94
2023-03-04T18:34:49.491Z,6.05
2023-03-04T18:37:19.219Z,6.32
2023-03-04T18:39:47.432Z,7.10
2023-03-04T18:42:15.714Z,6.58
2023-03-04T18:44:43.958Z,6.35
2023-03-04T18:47:12.684Z,6.44
2023-03-04T18:49:41.983Z,6.32
2023-03-04T18:52:10.199Z,6.34
2023-03-04T18:54:39.802Z,6.50
2023-03-04T18:57:09.593Z,6.32
2023-03-04T18:59:40.628Z,6.03
2023-03-04T19:02:14.772Z,6.07
2023-03-04T19:04:43.033Z,6.47
2023-03-04T19:07:11.252Z,5.83
2023-03-04T19:09:40.883Z,5.78
2023-03-04T19:12:09.243Z,6.22
2023-03-04T19:14:37.478Z,6.56
2023-03-04T19:17:05.716Z,6.20
2023-03-04T19:19:34.031Z,6.28
2023-03-04T19:22:02.261Z,6.61
2023-03-04T19:24:30.477Z,6.07
2023-03-04T19:27:00.134Z,6.44
2023-03-04T19:29:28.489Z,6.52
2023-03-04T19:31:56.840Z,6.40
2023-03-04T19:34:25.062Z,6.48
2023-03-04T19:36:53.284Z,6.70
2023-03-04T19:39:21.785Z,6.24
2023-03-04T19:41:50.084Z,6.39
2023-03-04T19:44:20.001Z,6.31
2023-03-04T19:46:48.316Z,6.18
2023-03-04T19:49:16.684Z,6.03
2023-03-04T19:51:44.940Z,6.35
2023-03-04T19:54:13.258Z,6.62
2023-03-04T19:56:41.479Z,6.72
2023-03-04T19:59:09.775Z,6.45
2023-03-04T20:01:39.670Z,6.37
2023-03-04T20:04:10.044Z,6.40
2023-03-04T20:06:39.876Z,6.32
2023-03-04T20:09:08.177Z,6.38
2023-03-04T20:11:44.238Z,6.63
2023-03-04T20:14:19.537Z,6.28
2023-03-04T20:16:49.188Z,6.37
2023-03-04T20:19:17.429Z,6.38
2023-03-04T20:21:45.904Z,5.70
2023-03-04T20:24:15.152Z,5.92
2023-03-04T20:26:43.461Z,6.17
2023-03-04T20:29:11.762Z,6.13
2023-03-04T20:31:40.297Z,5.69
2023-03-04T20:34:10.059Z,5.86
2023-03-04T20:36:39.058Z,5.45
2023-03-04T20:39:21.501Z,6.28
2023-03-04T20:41:55.684Z,5.82
2023-03-04T20:44:23.895Z,5.43
2023-03-04T20:46:52.236Z,6.00
2023-03-04T20:49:24.060Z,6.08
2023-03-04T20:51:53.131Z,6.59
2023-03-04T20:54:21.684Z,6.48
2023-03-04T20:56:50.346Z,6.32
2023-03-04T20:59:19.143Z,6.33
2023-03-04T21:01:48.837Z,6.04
2023-03-04T21:04:17.389Z,6.02
2023-03-04T21:06:47.424Z,6.70
2023-03-04T21:09:17.200Z,6.56
2023-03-04T21:11:45.999Z,6.50
2023-03-04T21:14:15.953Z,6.51
2023-03-04T21:16:44.191Z,6.56
2023-03-04T21:19:16.859Z,6.11
2023-03-04T21:21:47.567Z,6.42
2023-03-04T21:24:16.185Z,6.46
2023-03-04T21:26:47.412Z,6.32
2023-03-04T21:29:16.477Z,5.99
2023-03-04T21:31:46.830Z,6.46
2023-03-04T21:34:17.957Z,6.38
2023-03-04T21:36:47.580Z,6.01
2023-03-04T21:39:17.673Z,6.13
2023-03-04T21:41:46.151Z,6.10
2023-03-04T21:44:23.072Z,6.10
2023-03-04T21:46:57.491Z,6.13
2023-03-04T21:49:25.747Z,6.49
2023-03-04T21:51:55.562Z,6.27
2023-03-04T21:54:24.092Z,6.18
2023-03-04T21:56:52.468Z,6.36
2023-03-04T21:59:21.688Z,5.92
2023-03-04T22:01:49.998Z,5.71
2023-03-04T22:04:18.248Z,5.79
2023-03-04T22:06:46.495Z,6.13
2023-03-04T22:09:16.222Z,5.98
2023-03-04T22:11:44.608Z,5.91
2023-03-04T22:14:13.172Z,5.62
2023-03-04T22:16:54.356Z,5.91
2023-03-04T22:19:23.837Z,6.08
2023-03-04T22:21:52.537Z,6.19
2023-03-04T22:24:22.675Z,6.26
2023-03-04T22:26:51.008Z,6.30
2023-03-04T22:29:19.319Z,6.24
2023-03-04T22:31:47.847Z,5.93
2023-03-04T22:34:16.867Z,6.05
2023-03-04T22:36:46.457Z,6.76
2023-03-04T22:39:19.273Z,6.24
2023-03-04T22:41:49.337Z,6.56
2023-03-04T22:44:17.761Z,6.64
2023-03-04T22:46:46.073Z,6.75
2023-03-04T22:49:15.061Z,6.06
2023-03-04T22:51:45.158Z,6.02
2023-03-04T22:54:14.272Z,6.44
2023-03-04T22:56:42.664Z,6.07
2023-03-04T22:59:13.173Z,6.16
2023-03-04T23:01:41.836Z,6.08
2023-03-04T23:04:10.110Z,5.85
2023-03-04T23:06:38.528Z,6.26
2023-03-04T23:09:07.347Z,6.08
2023-03-04T23:11:36.929Z,5.97
2023-03-04T23:14:07.309Z,5.82
2023-03-04T23:16:41.051Z,6.30
2023-03-04T23:19:10.266Z,5.43
2023-03-04T23:21:38.733Z,5.93
2023-03-04T23:24:08.618Z,6.16
2023-03-04T23:26:39.767Z,6.13
2023-03-04T23:29:10.862Z,5.97
2023-03-04T23:31:40.509Z,6.03
2023-03-04T23:34:08.863Z,5.75
2023-03-04T23:36:38.089Z,5.96
2023-03-04T23:39:07.764Z,5.80
2023-03-04T23:41:36.512Z,5.84
2023-03-04T23:44:05.643Z,6.52
2023-03-04T23:46:33.985Z,6.25
2023-03-04T23:49:03.649Z,6.66
2023-03-04T23:51:31.971Z,6.30
2023-03-04T23:54:00.449Z,6.19
2023-03-04T23:56:30.495Z,6.50
2023-03-04T23:58:59.232Z,6.32
